createdAt,value
2018-05-31T00:02:08.711Z,7.87
2018-05-31T00:05:11.985Z,8.47
2018-05-31T00:08:16.032Z,8.27
2018-05-31T00:11:19.479Z,8.70
2018-05-31T00:14:22.815Z,7.83
2018-05-31T00:17:26.844Z,8.03
2018-05-31T00:20:30.115Z,8.20
2018-05-31T00:23:34.215Z,9.13
2018-05-31T00:26:37.496Z,8.47
2018-05-31T00:29:40.764Z,9.30
2018-05-31T00:32:44.828Z,8.77
2018-05-31T00:35:48.106Z,8.47
2018-05-31T00:38:51.826Z,8.13
2018-05-31T00:41:55.097Z,8.50
2018-05-31T00:44:58.364Z,8.47
2018-05-31T00:48:01.652Z,8.65
2018-05-31T00:51:05.023Z,8.97
2018-05-31T00:54:08.291Z,8.70
2018-05-31T00:57:11.586Z,8.33
2018-05-31T01:00:14.880Z,8.80
2018-05-31T01:03:18.248Z,8.17
2018-05-31T01:06:22.295Z,8.67
2018-05-31T01:09:25.568Z,8.77
2018-05-31T01:12:28.866Z,8.60
2018-05-31T01:15:32.148Z,8.30
2018-05-31T01:18:36.187Z,8.50
2018-05-31T01:21:39.459Z,8.53
2018-05-31T01:24:43.488Z,7.70
2018-05-31T01:27:46.763Z,8.23
2018-05-31T01:30:50.814Z,8.13
2018-05-31T01:33:54.074Z,6.70
2018-05-31T01:36:58.115Z,7.10
2018-05-31T01:40:01.397Z,7.60
2018-05-31T01:43:05.440Z,6.90
2018-05-31T01:46:08.783Z,6.93
2018-05-31T01:49:13.552Z,7.30
2018-05-31T01:52:16.807Z,7.47
2018-05-31T01:55:20.113Z,7.07
2018-05-31T01:58:23.371Z,6.50
2018-05-31T02:01:26.659Z,6.67
2018-05-31T02:04:29.941Z,7.00
2018-05-31T02:07:33.203Z,6.10
2018-05-31T02:10:36.466Z,6.37
2018-05-31T02:13:39.732Z,6.33
2018-05-31T02:16:43.027Z,7.00
2018-05-31T02:19:46.295Z,7.00
2018-05-31T02:22:49.562Z,7.50
2018-05-31T02:25:52.839Z,6.72
2018-05-31T02:28:56.103Z,6.53
2018-05-31T02:32:00.157Z,6.80
2018-05-31T02:35:03.421Z,6.83
2018-05-31T02:38:07.452Z,6.37
2018-05-31T02:41:10.723Z,6.00
2018-05-31T02:44:14.747Z,6.63
2018-05-31T02:47:18.023Z,6.53
2018-05-31T02:50:21.286Z,6.27
2018-05-31T02:53:25.036Z,6.70
2018-05-31T02:56:28.847Z,6.10
2018-05-31T02:59:32.180Z,6.20
2018-05-31T03:02:36.177Z,5.73
2018-05-31T03:05:39.543Z,5.57
2018-05-31T03:08:42.815Z,5.33
2018-05-31T03:11:46.092Z,5.30
2018-05-31T03:14:49.365Z,6.30
2018-05-31T03:17:52.664Z,5.70
2018-05-31T03:20:55.941Z,6.00
2018-05-31T03:24:00.318Z,5.27
2018-05-31T03:27:03.774Z,5.90
2018-05-31T03:30:07.906Z,5.27
2018-05-31T03:33:11.186Z,6.07
2018-05-31T03:36:15.220Z,5.73
2018-05-31T03:39:18.711Z,5.40
2018-05-31T03:42:22.016Z,5.43
2018-05-31T03:45:25.288Z,6.07
2018-05-31T03:48:28.594Z,4.67
2018-05-31T03:51:32.692Z,4.90
2018-05-31T03:54:37.450Z,4.63
2018-05-31T03:57:40.751Z,5.20
2018-05-31T04:00:45.290Z,5.03
2018-05-31T04:03:48.556Z,4.60
2018-05-31T04:06:52.834Z,5.70
2018-05-31T04:09:56.109Z,5.47
2018-05-31T04:12:59.501Z,4.87
2018-05-31T04:16:03.591Z,5.23
2018-05-31T04:19:07.419Z,5.67
2018-05-31T04:22:11.457Z,4.90
2018-05-31T04:25:15.804Z,4.40
2018-05-31T04:28:19.949Z,4.30
2018-05-31T04:31:24.446Z,4.15
2018-05-31T04:34:28.790Z,3.90
2018-05-31T04:37:32.186Z,4.17
2018-05-31T04:40:35.531Z,3.70
2018-05-31T04:43:38.859Z,3.70
2018-05-31T04:46:42.126Z,3.50
2018-05-31T04:49:45.451Z,3.80
2018-05-31T04:52:48.715Z,3.70
2018-05-31T04:55:52.031Z,3.67
2018-05-31T04:58:55.299Z,3.70
2018-05-31T05:01:59.332Z,4.10
2018-05-31T05:05:02.667Z,3.50
2018-05-31T05:08:06.523Z,3.87
2018-05-31T05:11:10.551Z,4.17
2018-05-31T05:14:13.850Z,4.17
2018-05-31T05:17:17.236Z,4.00
2018-05-31T05:20:20.638Z,4.20
2018-05-31T05:23:23.914Z,4.20
2018-05-31T05:26:27.186Z,3.17
2018-05-31T05:29:30.510Z,4.43
2018-05-31T05:32:34.801Z,5.53
2018-05-31T05:35:39.592Z,3.67
2018-05-31T05:38:42.883Z,3.97
2018-05-31T05:41:47.058Z,4.40
2018-05-31T05:44:50.334Z,3.90
2018-05-31T05:47:53.773Z,4.03
2018-05-31T05:50:57.978Z,4.53
2018-05-31T05:54:03.935Z,4.23
2018-05-31T05:57:07.278Z,3.60
2018-05-31T06:00:11.504Z,4.17
2018-05-31T06:03:16.001Z,3.70
2018-05-31T06:06:20.088Z,4.50
2018-05-31T06:09:23.370Z,4.03
2018-05-31T06:12:26.782Z,4.20
2018-05-31T06:15:30.185Z,4.73
2018-05-31T06:18:33.565Z,4.40
2018-05-31T06:21:37.049Z,4.83
2018-05-31T06:25:11.081Z,4.20
2018-05-31T06:28:56.396Z,4.67
2018-05-31T06:32:08.050Z,5.20
2018-05-31T06:35:11.716Z,5.50
2018-05-31T06:38:14.987Z,6.23
2018-05-31T06:41:19.791Z,6.00
2018-05-31T06:44:23.753Z,6.17
2018-05-31T06:47:27.902Z,4.83
2018-05-31T06:50:31.943Z,4.97
2018-05-31T06:53:35.713Z,5.63
2018-05-31T06:56:39.331Z,5.70
2018-05-31T06:59:42.627Z,6.50
2018-05-31T07:02:47.386Z,6.37
2018-05-31T07:05:54.094Z,6.15
2018-05-31T07:08:57.560Z,5.40
2018-05-31T07:12:00.828Z,5.60
2018-05-31T07:15:04.863Z,5.10
2018-05-31T07:18:08.136Z,5.77
2018-05-31T07:21:12.176Z,5.93
2018-05-31T07:24:15.704Z,6.13
2018-05-31T07:27:19.790Z,7.27
2018-05-31T07:30:23.806Z,7.00
2018-05-31T07:33:27.769Z,7.50
2018-05-31T07:36:31.494Z,8.00
2018-05-31T07:39:34.830Z,8.00
2018-05-31T07:42:39.111Z,7.20
2018-05-31T07:45:42.472Z,7.70
2018-05-31T07:48:45.808Z,7.93
2018-05-31T07:51:49.109Z,8.03
2018-05-31T07:54:52.446Z,8.57
2018-05-31T07:57:55.745Z,8.87
2018-05-31T08:00:59.013Z,9.33
2018-05-31T08:04:02.297Z,8.60
2018-05-31T08:07:06.327Z,7.97
2018-05-31T08:10:09.608Z,7.37
2018-05-31T08:13:12.898Z,8.02
2018-05-31T08:16:16.153Z,8.30
2018-05-31T08:23:33.557Z,7.17
2018-05-31T08:27:09.323Z,7.40
2018-05-31T08:30:24.332Z,6.60
2018-05-31T08:33:55.833Z,6.43
2018-05-31T08:37:15.156Z,7.77
2018-05-31T08:40:45.549Z,7.80
2018-05-31T08:43:51.163Z,7.20
2018-05-31T08:46:55.234Z,6.67
2018-05-31T08:50:03.006Z,7.13
2018-05-31T08:53:10.609Z,6.47
2018-05-31T08:56:14.364Z,6.00
2018-05-31T08:59:17.623Z,5.40
2018-05-31T09:02:20.933Z,4.50
2018-05-31T09:05:25.022Z,5.23
2018-05-31T09:08:29.725Z,5.57
2018-05-31T09:11:33.191Z,5.20
2018-05-31T09:14:36.452Z,5.73
2018-05-31T09:17:40.497Z,5.13
2018-05-31T09:20:43.771Z,6.10
2018-05-31T09:23:47.998Z,6.23
2018-05-31T09:26:51.293Z,5.97
2018-05-31T09:29:54.550Z,5.80
2018-05-31T09:32:57.811Z,5.70
2018-05-31T09:36:01.086Z,5.03
2018-05-31T09:39:05.117Z,5.30
2018-05-31T09:42:08.418Z,5.50
2018-05-31T09:45:12.192Z,6.67
2018-05-31T09:48:16.479Z,5.20
2018-05-31T09:51:22.324Z,3.80
2018-05-31T09:54:26.204Z,7.00
2018-05-31T09:57:29.546Z,6.60
2018-05-31T10:00:39.138Z,5.67
2018-05-31T10:03:42.428Z,4.93
2018-05-31T10:06:46.708Z,4.73
2018-05-31T10:09:50.007Z,5.67
2018-05-31T10:12:53.631Z,4.97
2018-05-31T10:15:56.907Z,5.27
2018-05-31T10:19:00.216Z,5.77
2018-05-31T10:22:03.482Z,5.50
2018-05-31T10:25:06.730Z,5.77
2018-05-31T10:28:10.772Z,4.73
2018-05-31T10:31:14.023Z,5.77
2018-05-31T10:34:17.294Z,5.20
2018-05-31T10:37:20.799Z,6.17
2018-05-31T10:40:24.050Z,5.17
2018-05-31T10:43:27.652Z,5.30
2018-05-31T10:46:30.916Z,5.33
2018-05-31T10:49:34.189Z,5.43
2018-05-31T10:52:37.455Z,5.63
2018-05-31T10:55:40.703Z,5.57
2018-05-31T10:58:43.967Z,4.93
2018-05-31T11:01:47.222Z,4.67
2018-05-31T11:04:51.253Z,5.10
2018-05-31T11:07:54.516Z,5.43
2018-05-31T11:10:58.087Z,5.27
2018-05-31T11:14:01.543Z,5.27
2018-05-31T11:17:05.594Z,5.43
2018-05-31T11:20:08.864Z,6.93
2018-05-31T11:23:13.023Z,5.87
2018-05-31T11:26:16.710Z,5.73
2018-05-31T11:29:20.000Z,5.17
2018-05-31T11:32:24.983Z,5.80
2018-05-31T11:35:28.298Z,5.03
2018-05-31T11:38:36.467Z,4.30
2018-05-31T11:41:41.090Z,4.70
2018-05-31T11:44:44.492Z,5.10
2018-05-31T11:47:47.848Z,4.83
2018-05-31T11:50:51.894Z,5.20
2018-05-31T11:53:55.167Z,5.43
2018-05-31T11:56:59.401Z,5.50
2018-05-31T12:00:02.664Z,4.67
2018-05-31T12:03:08.755Z,5.13
2018-05-31T12:06:12.917Z,5.20
2018-05-31T12:09:16.185Z,4.40
2018-05-31T12:12:19.628Z,5.20
2018-05-31T12:15:22.903Z,4.83
2018-05-31T12:18:26.171Z,4.40
2018-05-31T12:21:29.450Z,4.37
2018-05-31T12:24:33.587Z,4.00
2018-05-31T12:27:36.849Z,4.93
2018-05-31T12:30:40.302Z,5.37
2018-05-31T12:33:43.626Z,5.40
2018-05-31T12:36:47.922Z,5.10
2018-05-31T12:39:51.235Z,5.03
2018-05-31T12:42:54.538Z,4.27
2018-05-31T12:45:59.026Z,4.20
2018-05-31T12:49:02.592Z,3.90
2018-05-31T12:52:06.090Z,4.00
2018-05-31T12:55:09.354Z,3.57
2018-05-31T12:58:12.631Z,4.07
2018-05-31T13:01:15.949Z,5.63
2018-05-31T13:04:19.322Z,3.77
2018-05-31T13:07:28.019Z,4.10
2018-05-31T13:10:31.581Z,3.70
2018-05-31T13:13:34.882Z,4.37
2018-05-31T13:16:38.145Z,4.50
2018-05-31T13:19:41.418Z,4.03
2018-05-31T13:22:45.464Z,4.23
2018-05-31T13:25:48.773Z,4.90
2018-05-31T13:28:52.169Z,3.80
2018-05-31T13:31:55.827Z,3.93
2018-05-31T13:35:00.625Z,3.83
2018-05-31T13:38:16.604Z,4.30
2018-05-31T13:41:20.355Z,4.10
2018-05-31T13:44:24.467Z,3.70
2018-05-31T13:47:28.577Z,4.17
2018-05-31T13:50:32.162Z,3.97
2018-05-31T13:53:35.591Z,4.67
2018-05-31T13:56:38.888Z,5.12
2018-05-31T13:59:43.358Z,4.40
2018-05-31T14:02:46.732Z,4.33
2018-05-31T14:05:50.237Z,3.67
2018-05-31T14:08:53.494Z,4.90
2018-05-31T14:11:56.758Z,4.23
2018-05-31T14:15:00.144Z,4.40
2018-05-31T14:18:04.726Z,4.47
2018-05-31T14:21:09.522Z,3.83
2018-05-31T14:24:14.178Z,4.10
2018-05-31T14:27:17.545Z,4.23
2018-05-31T14:30:21.309Z,4.13
2018-05-31T14:33:25.733Z,4.37
2018-05-31T14:36:29.450Z,4.53
2018-05-31T14:39:33.525Z,3.93
2018-05-31T14:42:36.906Z,3.77
2018-05-31T14:45:40.868Z,4.47
2018-05-31T14:48:44.821Z,4.18
2018-05-31T14:51:48.847Z,3.85
2018-05-31T14:54:52.139Z,4.20
2018-05-31T14:57:55.546Z,4.57
2018-05-31T15:00:58.835Z,4.53
2018-05-31T15:04:03.912Z,4.20
2018-05-31T15:07:12.789Z,4.90
2018-05-31T15:10:16.226Z,4.03
2018-05-31T15:13:25.382Z,5.43
2018-05-31T15:16:31.069Z,5.37
2018-05-31T15:19:35.103Z,4.97
2018-05-31T15:22:38.538Z,4.70
2018-05-31T15:25:41.883Z,4.87
2018-05-31T15:28:45.210Z,4.93
2018-05-31T15:31:49.367Z,5.27
2018-05-31T15:34:54.138Z,6.10
2018-05-31T15:37:57.472Z,5.07
2018-05-31T15:41:00.730Z,4.83
2018-05-31T15:44:04.628Z,5.17
2018-05-31T15:47:09.229Z,5.20
2018-05-31T15:50:12.610Z,4.70
2018-05-31T15:53:15.998Z,4.90
2018-05-31T15:56:20.204Z,5.53
2018-05-31T15:59:24.286Z,4.80
2018-05-31T16:02:27.562Z,4.37
2018-05-31T16:05:30.841Z,3.97
2018-05-31T16:08:34.194Z,4.87
2018-05-31T16:11:37.506Z,3.77
2018-05-31T16:14:41.553Z,3.73
2018-05-31T16:17:44.830Z,3.70
2018-05-31T16:20:49.038Z,3.67
2018-05-31T16:23:52.464Z,3.30
2018-05-31T16:26:56.498Z,4.77
2018-05-31T16:30:00.524Z,3.37
2018-05-31T16:33:03.834Z,4.23
2018-05-31T16:36:07.131Z,3.83
2018-05-31T16:39:11.214Z,4.47
2018-05-31T16:42:14.763Z,3.17
2018-05-31T16:45:18.022Z,3.53
2018-05-31T16:48:23.242Z,3.80
2018-05-31T16:51:26.588Z,3.77
2018-05-31T16:54:29.874Z,3.33
2018-05-31T16:57:33.919Z,3.97
2018-05-31T17:00:37.185Z,3.93
2018-05-31T17:03:41.426Z,4.10
2018-05-31T17:06:45.751Z,3.77
2018-05-31T17:09:49.414Z,3.27
2018-05-31T17:13:03.865Z,3.07
2018-05-31T17:16:08.763Z,3.67
2018-05-31T17:19:19.273Z,3.83
2018-05-31T17:22:40.642Z,3.13
2018-05-31T17:25:47.548Z,2.83
2018-05-31T17:28:50.940Z,3.77
2018-05-31T17:32:16.485Z,3.37
2018-05-31T17:35:41.045Z,4.00
2018-05-31T17:39:00.674Z,3.23
2018-05-31T17:42:31.752Z,3.87
2018-05-31T17:45:50.930Z,3.40
2018-05-31T17:49:10.145Z,3.40
2018-05-31T17:52:15.498Z,3.40
2018-05-31T17:55:23.841Z,3.70
2018-05-31T17:58:33.009Z,3.80
2018-05-31T18:01:38.672Z,3.93
2018-05-31T18:04:42.128Z,3.97
2018-05-31T18:07:45.469Z,3.40
2018-05-31T18:10:48.999Z,3.73
2018-05-31T18:13:52.306Z,4.43
2018-05-31T18:16:55.658Z,4.07
2018-05-31T18:19:58.963Z,4.33
2018-05-31T18:23:02.240Z,4.97
2018-05-31T18:26:05.523Z,4.73
2018-05-31T18:29:08.796Z,5.50
2018-05-31T18:32:12.134Z,4.67
2018-05-31T18:35:15.914Z,4.53
2018-05-31T18:38:19.233Z,4.47
2018-05-31T18:41:22.493Z,4.27
2018-05-31T18:44:43.077Z,5.20
2018-05-31T18:47:47.806Z,4.83
2018-05-31T18:50:52.006Z,5.43
2018-05-31T18:53:55.467Z,5.10
2018-05-31T18:56:59.879Z,5.50
2018-05-31T19:00:03.181Z,5.63
2018-05-31T19:03:06.580Z,5.37
2018-05-31T19:06:09.872Z,4.67
2018-05-31T19:09:18.824Z,5.70
2018-05-31T19:12:27.825Z,4.53
2018-05-31T19:15:31.922Z,5.23
2018-05-31T19:18:40.732Z,5.47
2018-05-31T19:21:44.005Z,5.07
2018-05-31T19:24:52.877Z,4.13
2018-05-31T19:27:57.016Z,5.03
2018-05-31T19:31:06.174Z,5.30
2018-05-31T19:34:09.859Z,5.00
2018-05-31T19:37:14.889Z,4.90
2018-05-31T19:40:18.420Z,4.67
2018-05-31T19:43:28.227Z,4.30
2018-05-31T19:46:32.369Z,5.10
2018-05-31T19:49:35.716Z,4.07
2018-05-31T19:52:44.433Z,4.55
2018-05-31T19:55:47.775Z,3.87
2018-05-31T19:58:57.365Z,3.40
2018-05-31T20:02:06.797Z,3.20
2018-05-31T20:05:10.055Z,3.23
2018-05-31T20:08:14.131Z,2.67
2018-05-31T20:11:17.450Z,3.17
2018-05-31T20:14:20.817Z,3.23
2018-05-31T20:17:25.966Z,3.17
2018-05-31T20:20:29.420Z,2.73
2018-05-31T20:23:33.588Z,2.87
2018-05-31T20:26:36.945Z,2.87
2018-05-31T20:29:40.236Z,2.20
2018-05-31T20:32:44.367Z,2.43
2018-05-31T20:35:47.789Z,4.83
2018-05-31T20:38:51.149Z,2.13
2018-05-31T20:41:55.177Z,2.70
2018-05-31T20:44:58.472Z,3.00
2018-05-31T20:48:01.762Z,3.43
2018-05-31T20:51:05.631Z,3.00
2018-05-31T20:54:08.885Z,3.23
2018-05-31T20:57:12.148Z,3.75
2018-05-31T21:00:15.417Z,3.17
2018-05-31T21:03:18.692Z,3.37
2018-05-31T21:06:23.684Z,3.73
2018-05-31T21:09:28.081Z,3.50
2018-05-31T21:12:31.674Z,3.40
2018-05-31T21:15:34.953Z,3.67
2018-05-31T21:18:38.238Z,3.90
2018-05-31T21:21:41.705Z,4.30
2018-05-31T21:24:45.828Z,3.43
2018-05-31T21:27:50.907Z,4.23
2018-05-31T21:30:54.161Z,4.00
2018-05-31T21:33:58.186Z,4.10
2018-05-31T21:37:07.836Z,3.33
2018-05-31T21:40:11.205Z,4.23
2018-05-31T21:43:14.624Z,4.25
2018-05-31T21:46:18.684Z,4.30
2018-05-31T21:49:22.446Z,4.30
2018-05-31T21:52:28.001Z,4.07
2018-05-31T21:55:32.033Z,4.73
2018-05-31T21:58:35.635Z,4.50
2018-05-31T22:01:39.656Z,4.53
2018-05-31T22:04:43.706Z,3.97
2018-05-31T22:07:46.957Z,4.60
2018-05-31T22:10:52.216Z,4.90
2018-05-31T22:13:55.470Z,4.03
2018-05-31T22:16:59.401Z,4.67
2018-05-31T22:20:03.497Z,4.63
2018-05-31T22:23:07.556Z,4.67
2018-05-31T22:26:10.847Z,4.50
2018-05-31T22:29:14.123Z,4.40
2018-05-31T22:32:17.652Z,4.80
2018-05-31T22:35:20.908Z,4.93
2018-05-31T22:38:24.183Z,4.87
2018-05-31T22:41:27.474Z,4.47
2018-05-31T22:44:30.730Z,4.80
2018-05-31T22:47:34.036Z,4.30
2018-05-31T22:50:38.059Z,4.80
2018-05-31T22:53:41.316Z,5.10
2018-05-31T22:59:54.036Z,4.40
2018-05-31T23:02:57.326Z,4.30
2018-05-31T23:06:00.678Z,4.25
2018-05-31T23:09:04.118Z,4.43
2018-05-31T23:12:07.941Z,4.23
2018-05-31T23:15:11.292Z,4.23
2018-05-31T23:18:15.509Z,4.67
2018-05-31T23:21:19.658Z,4.00
2018-05-31T23:24:22.950Z,4.77
2018-05-31T23:27:26.228Z,4.10
2018-05-31T23:30:29.635Z,4.43
2018-05-31T23:33:33.459Z,4.22
2018-05-31T23:36:36.742Z,4.33
2018-05-31T23:39:39.995Z,4.90
2018-05-31T23:42:43.280Z,4.40
2018-05-31T23:45:46.535Z,4.70
2018-05-31T23:48:49.842Z,4.23
2018-05-31T23:51:53.205Z,3.90
2018-05-31T23:54:57.455Z,4.57
2018-05-31T23:58:00.726Z,4.07
